Time;durP1;ratioP1;P1;durP2;ratioP2;P2;SDS_P1;SDS_P2;PMS_P1;PMS_P2;Temp;Humidity;BMP_temperature;BMP_pressure;BME280_temperature;BME280_humidity;BME280_pressure;Samples;Min_cycle;Max_cycle;Signal;HPM_P1;HPM_P2
2023/07/14 00:01:50;;;;;;;2.47;2.27;;;21.80;68.70;;;;;;10413357;28;20684;-79
2023/07/14 00:06:52;;;;;;;3.17;2.33;;;21.70;68.90;;;;;;10445378;28;20236;-77
2023/07/14 00:11:56;;;;;;;2.80;2.60;;;21.70;70.00;;;;;;10447412;28;20236;-76
2023/07/14 00:16:58;;;;;;;5.07;3.00;;;21.70;70.50;;;;;;10445446;28;20229;-77
2023/07/14 00:22:00;;;;;;;3.13;2.87;;;21.70;70.90;;;;;;10447007;28;20313;-77
2023/07/14 00:27:14;;;;;;;3.33;2.77;;;21.60;70.00;;;;;;10430280;28;20915;-77
2023/07/14 00:32:19;;;;;;;2.40;2.30;;;21.50;70.60;;;;;;10437225;28;20230;-78
2023/07/14 00:37:22;;;;;;;2.33;2.23;;;21.50;71.10;;;;;;10454290;28;20229;-77
2023/07/14 00:42:25;;;;;;;4.30;3.07;;;21.50;71.10;;;;;;10454950;28;20221;-78
2023/07/14 00:47:30;;;;;;;4.20;3.03;;;21.40;70.10;;;;;;10435976;28;20205;-77
2023/07/14 00:52:35;;;;;;;2.70;2.50;;;21.40;71.10;;;;;;10454637;28;20728;-78
2023/07/14 00:57:38;;;;;;;2.90;2.70;;;21.30;71.20;;;;;;10452523;28;20209;-76
2023/07/14 01:02:41;;;;;;;5.80;3.30;;;21.30;71.50;;;;;;10430735;28;20299;-78
2023/07/14 01:07:45;;;;;;;3.70;2.90;;;21.30;71.70;;;;;;10434341;28;20633;-77
2023/07/14 01:12:57;;;;;;;7.83;3.03;;;21.30;71.90;;;;;;10435463;28;20237;-77
2023/07/14 01:18:00;;;;;;;3.80;2.83;;;21.30;71.90;;;;;;10434215;28;20205;-78
2023/07/14 01:23:15;;;;;;;4.90;3.00;;;21.30;71.30;;;;;;10452974;28;20696;-78
2023/07/14 01:28:19;;;;;;;3.17;2.87;;;21.20;71.80;;;;;;10434079;28;20289;-78
2023/07/14 01:33:23;;;;;;;3.13;2.43;;;21.20;71.10;;;;;;10434538;28;20230;-77
2023/07/14 01:38:25;;;;;;;2.60;2.50;;;21.10;71.90;;;;;;10452210;28;20228;-77
2023/07/14 01:43:29;;;;;;;3.13;2.93;;;21.10;72.20;;;;;;10434295;28;20221;-78
2023/07/14 01:48:35;;;;;;;3.33;3.03;;;21.00;71.90;;;;;;10450186;28;20248;-76
2023/07/14 01:53:42;;;;;;;3.17;2.40;;;20.90;72.30;;;;;;10448523;28;20576;-77
2023/07/14 01:58:57;;;;;;;2.83;2.63;;;20.90;73.30;;;;;;10436048;28;20190;-77
2023/07/14 02:04:04;;;;;;;3.50;3.20;;;20.90;72.90;;;;;;10434076;28;20221;-78
2023/07/14 02:09:08;;;;;;;5.70;2.50;;;20.90;73.10;;;;;;10436562;28;20233;-77
2023/07/14 02:14:17;;;;;;;2.60;2.47;;;20.90;72.10;;;;;;10451042;28;20228;-78
2023/07/14 02:19:24;;;;;;;3.07;2.87;;;20.80;73.10;;;;;;10430115;28;20260;-77
2023/07/14 02:24:30;;;;;;;2.80;2.70;;;20.80;73.30;;;;;;10431901;28;20209;-77
2023/07/14 02:29:33;;;;;;;3.10;2.90;;;20.80;73.90;;;;;;10431785;28;20291;-77
2023/07/14 02:34:41;;;;;;;3.10;2.90;;;20.80;73.10;;;;;;10449925;28;20229;-77
2023/07/14 02:39:43;;;;;;;5.80;2.73;;;20.80;73.90;;;;;;10431687;28;20202;-78
2023/07/14 02:44:46;;;;;;;2.90;2.70;;;20.70;73.30;;;;;;10413521;28;20241;-78
2023/07/14 02:49:48;;;;;;;3.43;3.07;;;20.70;74.00;;;;;;10448144;28;20206;-77
2023/07/14 02:54:51;;;;;;;2.83;2.67;;;20.70;73.60;;;;;;10449728;28;20309;-77
2023/07/14 02:59:54;;;;;;;4.27;2.30;;;20.60;73.90;;;;;;10430830;28;20198;-77
2023/07/14 03:04:56;;;;;;;2.77;2.57;;;20.50;74.30;;;;;;10430980;28;20224;-76
2023/07/14 03:09:59;;;;;;;3.10;2.80;;;20.50;73.90;;;;;;10448469;28;20704;-77
2023/07/14 03:15:02;;;;;;;2.90;2.70;;;20.40;73.00;;;;;;10425514;28;20276;-77
2023/07/14 03:20:10;;;;;;;3.10;2.33;;;20.30;74.80;;;;;;10434045;28;20212;-77
2023/07/14 03:25:12;;;;;;;2.60;2.40;;;20.30;75.20;;;;;;10429928;28;20213;-76
2023/07/14 03:30:15;;;;;;;2.67;2.47;;;20.30;75.00;;;;;;10429777;28;20272;-79
2023/07/14 03:35:18;;;;;;;3.20;2.63;;;20.30;74.40;;;;;;10429909;28;20225;-77
2023/07/14 03:40:21;;;;;;;3.50;3.17;;;20.20;74.20;;;;;;10447191;28;20229;-77
2023/07/14 03:45:24;;;;;;;3.63;2.90;;;20.20;75.10;;;;;;10430263;28;20214;-76
2023/07/14 03:50:27;;;;;;;2.73;2.53;;;20.20;74.80;;;;;;10427194;28;20212;-76
2023/07/14 03:55:31;;;;;;;6.83;2.60;;;20.10;74.90;;;;;;10429577;28;20257;-77
2023/07/14 04:00:35;;;;;;;3.33;2.90;;;20.00;75.30;;;;;;10423939;28;20308;-77
2023/07/14 04:05:37;;;;;;;2.60;2.40;;;20.00;76.20;;;;;;10435057;28;20217;-76
2023/07/14 04:10:39;;;;;;;3.07;2.80;;;20.10;76.40;;;;;;10436606;28;20221;-77
2023/07/14 04:15:42;;;;;;;2.87;2.67;;;20.10;76.20;;;;;;10431947;28;20297;-77
2023/07/14 04:20:44;;;;;;;2.40;2.23;;;20.20;76.10;;;;;;10452884;28;20649;-77
2023/07/14 04:25:46;;;;;;;4.70;2.50;;;20.20;75.80;;;;;;10454301;28;20222;-77
2023/07/14 04:30:55;;;;;;;2.90;2.60;;;20.30;75.90;;;;;;10454511;28;20217;-79
2023/07/14 04:35:58;;;;;;;3.00;2.77;;;20.40;77.00;;;;;;10453459;28;20244;-77
2023/07/14 04:41:00;;;;;;;2.90;2.50;;;20.50;76.90;;;;;;10452971;28;20217;-77
2023/07/14 04:46:04;;;;;;;2.60;2.40;;;20.60;76.70;;;;;;10448651;28;20225;-77
2023/07/14 04:51:06;;;;;;;2.90;2.70;;;20.80;77.40;;;;;;10454420;28;20731;-76
2023/07/14 04:56:08;;;;;;;4.37;3.17;;;20.90;77.20;;;;;;10453080;28;20700;-74
2023/07/14 05:01:11;;;;;;;2.83;2.57;;;21.00;76.80;;;;;;10416139;28;20233;-77
2023/07/14 05:06:14;;;;;;;5.10;2.60;;;21.10;76.40;;;;;;10448842;28;20206;-77
2023/07/14 05:11:16;;;;;;;2.87;2.67;;;21.20;76.10;;;;;;10448357;28;20285;-78
2023/07/14 05:16:20;;;;;;;3.37;3.10;;;21.30;73.30;;;;;;10451674;28;20225;-78
2023/07/14 05:21:22;;;;;;;6.33;3.00;;;21.40;74.40;;;;;;10453032;28;20194;-77
2023/07/14 05:26:24;;;;;;;3.10;2.40;;;21.60;75.80;;;;;;10451778;28;20190;-77
2023/07/14 05:31:28;;;;;;;3.53;3.00;;;21.80;73.60;;;;;;10451492;28;20206;-76
2023/07/14 05:36:30;;;;;;;5.50;2.80;;;21.90;75.00;;;;;;10507556;22;20235;-79
2023/07/14 05:41:36;;;;;;;5.20;3.37;;;22.00;75.30;;;;;;10497414;28;20590;-79
2023/07/14 05:46:40;;;;;;;3.83;3.43;;;22.20;73.20;;;;;;10495681;28;20687;-79
2023/07/14 05:51:42;;;;;;;3.00;2.80;;;22.30;73.80;;;;;;10463879;28;20276;-79
2023/07/14 05:56:44;;;;;;;4.20;3.37;;;22.50;74.90;;;;;;10480472;28;20251;-77
2023/07/14 06:01:47;;;;;;;3.30;3.03;;;22.60;73.70;;;;;;10502069;28;20248;-79
2023/07/14 06:06:52;;;;;;;7.77;3.30;;;22.70;74.60;;;;;;10500319;28;20198;-79
2023/07/14 06:11:55;;;;;;;3.77;3.47;;;22.70;74.20;;;;;;10481387;28;20199;-77
2023/07/14 06:16:58;;;;;;;5.63;3.80;;;22.70;74.60;;;;;;10500564;28;20209;-78
2023/07/14 06:22:00;;;;;;;3.93;3.17;;;22.70;74.30;;;;;;10480371;28;20229;-79
2023/07/14 06:27:03;;;;;;;4.90;3.33;;;22.70;75.00;;;;;;10484788;28;20251;-78
2023/07/14 06:32:07;;;;;;;3.47;3.03;;;22.60;76.30;;;;;;10478305;28;20236;-77
2023/07/14 06:37:09;;;;;;;3.43;3.13;;;22.70;76.00;;;;;;10475594;28;20336;-78
2023/07/14 06:42:11;;;;;;;3.50;3.20;;;22.70;75.10;;;;;;10492728;28;20232;-78
2023/07/14 06:47:15;;;;;;;4.13;3.27;;;22.70;74.70;;;;;;10491047;28;20500;-78
2023/07/14 06:52:17;;;;;;;4.50;2.90;;;22.80;73.20;;;;;;10493738;28;20282;-79
2023/07/14 06:57:20;;;;;;;3.60;3.30;;;23.10;73.70;;;;;;10493675;28;20221;-78
2023/07/14 07:02:24;;;;;;;11.03;3.00;;;23.40;74.10;;;;;;10495877;28;20223;-78
2023/07/14 07:07:26;;;;;;;5.67;3.13;;;23.50;72.70;;;;;;10494950;28;20234;-78
2023/07/14 07:12:28;;;;;;;6.60;3.10;;;23.80;72.80;;;;;;10495245;28;20229;-78
2023/07/14 07:17:31;;;;;;;3.60;3.30;;;24.00;74.30;;;;;;10493916;28;20336;-78
2023/07/14 07:22:34;;;;;;;6.37;3.53;;;24.20;72.90;;;;;;10490819;28;20225;-78
2023/07/14 07:27:36;;;;;;;4.43;3.77;;;24.30;71.30;;;;;;10494207;28;20714;-79
2023/07/14 07:32:41;;;;;;;4.33;3.20;;;24.50;72.80;;;;;;10495454;28;20241;-77
2023/07/14 07:37:43;;;;;;;3.60;2.93;;;24.60;71.60;;;;;;10501144;28;20197;-77
2023/07/14 07:42:45;;;;;;;3.10;2.80;;;24.80;70.10;;;;;;10482898;28;20241;-77
2023/07/14 07:47:49;;;;;;;2.67;2.53;;;25.10;68.00;;;;;;10496164;28;20221;-77
2023/07/14 07:52:53;;;;;;;2.90;2.53;;;25.30;65.70;;;;;;10500163;28;20781;-79
2023/07/14 07:57:56;;;;;;;2.50;2.30;;;25.50;63.40;;;;;;10476836;28;20683;-79
2023/07/14 08:02:59;;;;;;;5.40;2.23;;;25.80;59.30;;;;;;10477379;28;20599;-79
2023/07/14 08:08:01;;;;;;;3.10;2.60;;;26.10;61.70;;;;;;10493334;28;20205;-78
2023/07/14 08:13:04;;;;;;;2.83;2.63;;;26.50;59.50;;;;;;10495325;28;20680;-78
2023/07/14 08:18:08;;;;;;;6.20;2.40;;;27.00;59.90;;;;;;10475038;28;20198;-79
2023/07/14 08:23:13;;;;;;;2.60;2.40;;;27.60;58.90;;;;;;10478082;28;20213;-79
2023/07/14 08:28:15;;;;;;;2.47;2.30;;;28.00;55.90;;;;;;10479145;28;20193;-79
2023/07/14 08:33:20;;;;;;;4.30;3.07;;;28.50;56.60;;;;;;10464554;28;20229;-80
2023/07/14 08:38:22;;;;;;;3.30;2.63;;;29.00;56.40;;;;;;10495993;28;20190;-79
2023/07/14 08:43:35;;;;;;;4.13;3.10;;;29.20;55.60;;;;;;10495882;28;20225;-79
2023/07/14 08:48:44;;;;;;;2.70;2.40;;;29.40;55.80;;;;;;10497875;28;20201;-80
2023/07/14 08:53:52;;;;;;;2.60;2.40;;;29.60;54.70;;;;;;10503967;28;20248;-79
2023/07/14 08:58:54;;;;;;;3.07;2.17;;;29.60;53.20;;;;;;10504440;28;20777;-79
2023/07/14 09:04:00;;;;;;;2.73;2.47;;;29.60;53.00;;;;;;10503084;28;20262;-80
2023/07/14 09:09:03;;;;;;;2.33;2.23;;;29.70;55.00;;;;;;10484340;28;20205;-79
2023/07/14 09:14:18;;;;;;;2.43;2.23;;;29.90;54.00;;;;;;10502678;28;20232;-79
2023/07/14 09:19:33;;;;;;;2.53;2.33;;;29.80;54.40;;;;;;10483275;28;20268;-80
2023/07/14 09:24:45;;;;;;;2.93;2.53;;;29.60;54.50;;;;;;10498831;28;20221;-79
2023/07/14 09:29:48;;;;;;;2.17;2.07;;;29.50;55.50;;;;;;10508478;28;20267;-80
2023/07/14 09:34:56;;;;;;;3.00;2.73;;;29.40;53.50;;;;;;10454322;28;20220;-78
2023/07/14 09:40:15;;;;;;;2.57;2.00;;;29.30;53.20;;;;;;10459670;28;20462;-79
2023/07/14 09:45:19;;;;;;;4.43;3.03;;;29.40;55.80;;;;;;10459872;28;20218;-78
2023/07/14 09:50:24;;;;;;;3.33;2.40;;;29.50;55.20;;;;;;10458394;28;20688;-79
2023/07/14 09:55:26;;;;;;;3.60;2.53;;;29.40;54.40;;;;;;10416587;28;20352;-79
2023/07/14 10:00:39;;;;;;;5.37;2.70;;;29.40;56.60;;;;;;10456873;28;20202;-79
2023/07/14 10:05:51;;;;;;;2.60;2.50;;;29.30;55.60;;;;;;10430148;28;20277;-79
2023/07/14 10:10:56;;;;;;;2.43;2.33;;;29.10;52.60;;;;;;10458585;28;20234;-79
2023/07/14 10:16:07;;;;;;;3.10;2.80;;;28.90;55.10;;;;;;10453231;28;20252;-79
2023/07/14 10:21:21;;;;;;;4.10;2.40;;;28.80;57.30;;;;;;10418513;28;20205;-79
2023/07/14 10:26:24;;;;;;;2.40;2.23;;;28.80;55.20;;;;;;10449816;28;20280;-80
2023/07/14 10:31:34;;;;;;;3.60;3.10;;;28.80;56.80;;;;;;10453047;28;20559;-79
2023/07/14 10:36:40;;;;;;;2.90;2.70;;;28.70;55.70;;;;;;10440301;28;20225;-80
2023/07/14 10:41:45;;;;;;;2.47;2.07;;;28.70;56.50;;;;;;10456308;28;20221;-80
2023/07/14 10:46:53;;;;;;;2.73;2.53;;;28.70;57.30;;;;;;10447434;28;20210;-78
2023/07/14 10:52:00;;;;;;;4.10;2.97;;;28.80;57.00;;;;;;10451545;28;20269;-79
2023/07/14 10:57:09;;;;;;;5.50;2.50;;;28.90;54.50;;;;;;10455555;28;20240;-79
2023/07/14 11:02:21;;;;;;;3.00;2.80;;;28.90;55.90;;;;;;10447508;28;20202;-80
2023/07/14 11:07:28;;;;;;;3.60;2.30;;;29.00;53.90;;;;;;10452903;28;20226;-78
2023/07/14 11:12:36;;;;;;;3.67;2.60;;;28.90;53.60;;;;;;10454530;28;20666;-80
2023/07/14 11:17:43;;;;;;;2.70;2.50;;;28.70;54.30;;;;;;10450585;28;20248;-79
2023/07/14 11:22:57;;;;;;;2.23;2.13;;;28.60;54.50;;;;;;10451092;28;20597;-79
2023/07/14 11:28:11;;;;;;;2.60;1.80;;;28.60;54.10;;;;;;10451745;28;20567;-80
2023/07/14 11:33:19;;;;;;;4.40;2.40;;;28.60;55.90;;;;;;10493482;22;20227;-77
2023/07/14 11:38:35;;;;;;;3.23;2.73;;;28.70;53.20;;;;;;10431596;28;20280;-78
2023/07/14 11:43:39;;;;;;;2.50;2.30;;;28.60;53.40;;;;;;10426812;28;20634;-76
2023/07/14 11:48:44;;;;;;;2.63;2.43;;;28.50;52.40;;;;;;10434361;28;20284;-77
2023/07/14 11:54:06;;;;;;;2.23;2.13;;;28.50;52.90;;;;;;10419653;28;20260;-76
2023/07/14 11:59:17;;;;;;;3.10;2.37;;;28.50;55.30;;;;;;10420814;28;20207;-77
2023/07/14 12:04:28;;;;;;;2.90;2.57;;;28.60;55.10;;;;;;10425163;28;20298;-77
2023/07/14 12:09:33;;;;;;;2.40;2.30;;;28.80;55.00;;;;;;10422226;28;20750;-76
2023/07/14 12:14:50;;;;;;;2.80;2.60;;;28.80;53.80;;;;;;10431258;28;20300;-77
2023/07/14 12:19:53;;;;;;;2.80;2.60;;;28.70;51.70;;;;;;10422750;28;20293;-78
2023/07/14 12:24:57;;;;;;;3.00;2.73;;;28.60;54.90;;;;;;10435607;28;20209;-77
2023/07/14 12:30:15;;;;;;;2.60;2.40;;;28.60;56.60;;;;;;10440192;28;20198;-76
2023/07/14 12:35:19;;;;;;;2.17;2.07;;;28.60;56.40;;;;;;10431848;28;20210;-77
2023/07/14 12:40:25;;;;;;;2.40;2.13;;;28.40;51.70;;;;;;10435827;28;20209;-77
2023/07/14 12:45:29;;;;;;;5.20;2.10;;;28.20;52.20;;;;;;10439164;28;20241;-78
2023/07/14 12:50:31;;;;;;;3.47;2.30;;;28.10;55.10;;;;;;10425562;28;20285;-77
2023/07/14 12:55:36;;;;;;;2.50;2.20;;;28.10;55.10;;;;;;10412854;28;20595;-77
2023/07/14 13:00:38;;;;;;;2.43;2.23;;;27.90;56.00;;;;;;10425424;28;20737;-75
2023/07/14 13:05:41;;;;;;;2.67;2.30;;;27.80;54.30;;;;;;10428824;28;20733;-77
2023/07/14 13:10:45;;;;;;;3.00;2.60;;;27.70;52.40;;;;;;10427207;28;20295;-77
2023/07/14 13:15:49;;;;;;;2.37;2.20;;;27.70;53.70;;;;;;10420813;28;20302;-77
2023/07/14 13:20:51;;;;;;;2.40;2.30;;;27.60;54.80;;;;;;10424918;28;20761;-77
2023/07/14 13:26:02;;;;;;;3.27;2.60;;;27.50;53.80;;;;;;10433039;28;20214;-78
2023/07/14 13:31:06;;;;;;;2.40;2.20;;;27.40;55.10;;;;;;10435337;28;20336;-77
2023/07/14 13:36:12;;;;;;;4.63;1.90;;;27.40;58.60;;;;;;10433935;28;20230;-76
2023/07/14 13:41:19;;;;;;;2.23;2.13;;;27.30;55.90;;;;;;10430972;28;20202;-76
2023/07/14 13:46:25;;;;;;;2.20;2.10;;;27.30;55.50;;;;;;10429772;28;20218;-77
2023/07/14 13:51:29;;;;;;;3.80;2.50;;;27.20;53.60;;;;;;10421971;28;20201;-77
2023/07/14 13:56:34;;;;;;;2.60;2.30;;;27.20;55.70;;;;;;10428800;28;20222;-77
2023/07/14 14:01:36;;;;;;;3.67;2.90;;;27.20;58.90;;;;;;10430369;28;20230;-77
2023/07/14 14:06:38;;;;;;;2.40;2.20;;;27.20;56.70;;;;;;10427335;28;20218;-77
2023/07/14 14:11:41;;;;;;;4.80;2.40;;;27.20;54.40;;;;;;10432068;28;20689;-77
2023/07/14 14:16:44;;;;;;;5.20;2.30;;;27.20;55.00;;;;;;10429436;28;20226;-77
2023/07/14 14:21:47;;;;;;;4.40;2.30;;;27.20;54.50;;;;;;10430925;28;20665;-76
2023/07/14 14:26:50;;;;;;;3.17;2.87;;;27.20;54.50;;;;;;10424659;28;20210;-78
2023/07/14 14:31:53;;;;;;;3.20;3.00;;;27.10;65.20;;;;;;10443968;28;20208;-77
2023/07/14 14:36:55;;;;;;;2.53;2.43;;;26.50;72.70;;;;;;10432509;28;20325;-76
2023/07/14 14:41:59;;;;;;;2.63;2.43;;;26.00;62.30;;;;;;10429118;28;20290;-77
2023/07/14 14:47:01;;;;;;;2.30;2.10;;;25.90;62.30;;;;;;10429673;28;20226;-77
2023/07/14 14:52:03;;;;;;;2.53;2.33;;;26.00;60.50;;;;;;10420434;28;20197;-77
2023/07/14 14:57:10;;;;;;;4.80;2.67;;;26.10;59.80;;;;;;10436751;28;20223;-77
2023/07/14 15:02:16;;;;;;;2.40;2.27;;;26.20;62.20;;;;;;10419671;28;20710;-77
2023/07/14 15:07:18;;;;;;;2.27;2.07;;;26.40;58.90;;;;;;10425612;28;20218;-77
2023/07/14 15:12:21;;;;;;;2.33;2.20;;;26.50;57.80;;;;;;10432763;28;20202;-78
2023/07/14 15:17:27;;;;;;;2.90;2.70;;;26.70;55.00;;;;;;10434135;28;20226;-77
2023/07/14 15:22:30;;;;;;;2.40;2.20;;;26.90;58.00;;;;;;10429944;28;20195;-77
2023/07/14 15:27:37;;;;;;;8.70;2.50;;;26.90;56.30;;;;;;10431444;28;20194;-77
2023/07/14 15:32:39;;;;;;;2.47;2.30;;;27.00;59.10;;;;;;10424785;28;20210;-77
2023/07/14 15:37:42;;;;;;;2.10;2.00;;;27.00;56.20;;;;;;10427635;28;20213;-77
2023/07/14 15:42:46;;;;;;;2.60;2.40;;;27.00;56.40;;;;;;10425273;28;20221;-77
2023/07/14 15:47:48;;;;;;;2.57;2.37;;;27.10;59.80;;;;;;10423266;28;20199;-77
2023/07/14 15:52:54;;;;;;;4.20;2.17;;;27.10;58.10;;;;;;10429557;28;20224;-78
2023/07/14 15:57:57;;;;;;;2.50;2.30;;;27.10;58.00;;;;;;10425670;28;20218;-77
2023/07/14 16:02:59;;;;;;;3.20;2.67;;;27.20;55.50;;;;;;10439272;28;20218;-77
2023/07/14 16:08:01;;;;;;;2.67;2.30;;;27.20;56.80;;;;;;10433888;28;20205;-76
2023/07/14 16:13:05;;;;;;;2.10;2.00;;;27.40;58.20;;;;;;10436690;28;20581;-77
2023/07/14 16:18:07;;;;;;;4.80;2.27;;;27.50;58.50;;;;;;10429886;28;20300;-77
2023/07/14 16:23:17;;;;;;;2.27;2.17;;;27.50;56.20;;;;;;10436750;28;20217;-76
2023/07/14 16:28:22;;;;;;;2.43;2.23;;;27.50;56.40;;;;;;10436827;28;20206;-78
2023/07/14 16:33:24;;;;;;;3.40;2.20;;;27.50;56.20;;;;;;10438460;28;20222;-77
2023/07/14 16:38:26;;;;;;;3.10;2.37;;;27.50;57.00;;;;;;10436687;28;20253;-77
2023/07/14 16:43:30;;;;;;;2.93;2.63;;;27.40;56.80;;;;;;10435353;28;20229;-78
2023/07/14 16:48:32;;;;;;;2.80;2.60;;;27.40;57.00;;;;;;10449158;28;20206;-77
2023/07/14 16:53:34;;;;;;;2.83;2.67;;;27.30;56.60;;;;;;10437913;28;20305;-77
2023/07/14 16:58:37;;;;;;;2.83;2.63;;;27.20;57.60;;;;;;10431322;28;20225;-77
2023/07/14 17:03:40;;;;;;;2.50;2.33;;;27.20;59.80;;;;;;10436255;28;20241;-77
2023/07/14 17:08:44;;;;;;;2.87;2.67;;;27.10;58.90;;;;;;10433314;28;20195;-76
2023/07/14 17:13:47;;;;;;;3.33;2.67;;;27.10;59.50;;;;;;10432127;28;20233;-76
2023/07/14 17:18:49;;;;;;;2.97;2.43;;;27.00;59.90;;;;;;10436672;28;20225;-76
2023/07/14 17:23:52;;;;;;;3.30;2.50;;;27.00;64.70;;;;;;10430425;28;20218;-76
2023/07/14 17:28:55;;;;;;;2.90;2.10;;;26.90;60.00;;;;;;10427766;28;20202;-78
2023/07/14 17:33:57;;;;;;;3.30;2.50;;;27.00;58.70;;;;;;10472028;22;20236;-80
2023/07/14 17:39:00;;;;;;;2.40;2.30;;;27.00;59.90;;;;;;10502579;28;20213;-81
2023/07/14 17:44:14;;;;;;;2.90;2.30;;;27.00;63.90;;;;;;10500957;28;20307;-80
2023/07/14 17:49:16;;;;;;;3.30;3.00;;;26.90;64.60;;;;;;10502138;28;20200;-80
2023/07/14 17:54:22;;;;;;;2.97;2.77;;;26.80;67.70;;;;;;10502168;28;20228;-81
2023/07/14 17:59:28;;;;;;;3.53;3.23;;;26.80;66.70;;;;;;10505117;28;20396;-80
2023/07/14 18:04:30;;;;;;;3.03;2.87;;;26.70;63.00;;;;;;10501099;28;20263;-81
2023/07/14 18:09:32;;;;;;;2.63;2.43;;;26.70;66.80;;;;;;10501489;28;20264;-79
2023/07/14 18:14:35;;;;;;;3.03;2.83;;;26.60;70.90;;;;;;10503329;28;20251;-80
2023/07/14 18:19:37;;;;;;;2.67;2.47;;;26.60;69.40;;;;;;10503241;28;20237;-81
2023/07/14 18:24:40;;;;;;;3.60;2.80;;;26.50;63.90;;;;;;10502275;28;20217;-80
2023/07/14 18:29:43;;;;;;;2.90;2.70;;;26.50;63.40;;;;;;10498708;28;20193;-80
2023/07/14 18:34:45;;;;;;;2.67;2.47;;;26.50;63.30;;;;;;10499533;28;20225;-80
2023/07/14 18:39:48;;;;;;;3.50;3.30;;;26.50;64.20;;;;;;10500027;28;20221;-81
2023/07/14 18:44:58;;;;;;;3.20;2.90;;;26.50;63.60;;;;;;10555318;27;20558;-78
2023/07/14 18:50:00;;;;;;;3.87;3.47;;;26.40;63.80;;;;;;10520268;28;20215;-80
2023/07/14 18:55:02;;;;;;;3.40;3.10;;;26.40;65.50;;;;;;10522269;28;20225;-79
2023/07/14 19:00:09;;;;;;;2.87;2.67;;;26.30;65.10;;;;;;10517681;28;20204;-79
2023/07/14 19:05:13;;;;;;;2.93;2.73;;;26.20;65.00;;;;;;10525598;28;20686;-76
2023/07/14 19:10:16;;;;;;;7.00;6.40;;;26.20;65.80;;;;;;10521630;28;20246;-79
2023/07/14 19:15:21;;;;;;;5.10;4.60;;;26.10;65.80;;;;;;10530480;28;20338;-80
2023/07/14 19:20:23;;;;;;;3.57;3.27;;;26.00;66.00;;;;;;10523446;28;20208;-76
2023/07/14 19:25:26;;;;;;;3.63;3.33;;;26.00;69.20;;;;;;10529180;28;20217;-78
2023/07/14 19:30:34;;;;;;;3.70;3.40;;;25.90;72.00;;;;;;10531556;28;20189;-79
2023/07/14 19:35:37;;;;;;;4.20;3.30;;;25.80;70.30;;;;;;10517731;28;20327;-79
2023/07/14 19:40:40;;;;;;;5.57;4.13;;;25.70;73.90;;;;;;10519780;28;20589;-79
2023/07/14 19:45:44;;;;;;;6.00;4.80;;;25.60;70.40;;;;;;10516501;28;20232;-78
2023/07/14 19:50:48;;;;;;;4.33;3.97;;;25.50;70.90;;;;;;10527347;28;20208;-79
2023/07/14 19:55:50;;;;;;;3.60;3.30;;;25.40;73.90;;;;;;10500731;28;20224;-77
2023/07/14 20:00:56;;;;;;;4.30;3.60;;;25.30;71.90;;;;;;10494771;28;20217;-78
2023/07/14 20:06:00;;;;;;;3.30;3.00;;;25.30;71.90;;;;;;10489427;28;20499;-77
2023/07/14 20:11:04;;;;;;;5.03;3.10;;;25.30;75.30;;;;;;10500431;28;20193;-78
2023/07/14 20:16:12;;;;;;;3.60;3.20;;;25.20;74.90;;;;;;10483035;28;20644;-78
2023/07/14 20:21:18;;;;;;;3.63;3.33;;;25.20;72.80;;;;;;10491240;28;20217;-78
2023/07/14 20:26:21;;;;;;;3.13;2.90;;;25.20;71.90;;;;;;10490365;28;20241;-78
2023/07/14 20:31:25;;;;;;;3.80;2.87;;;25.20;70.60;;;;;;10499968;28;20272;-79
2023/07/14 20:36:27;;;;;;;3.13;2.93;;;25.20;70.30;;;;;;10482421;28;20220;-81
2023/07/14 20:41:31;;;;;;;6.10;2.70;;;25.20;70.40;;;;;;10491256;28;20228;-79
2023/07/14 20:46:37;;;;;;;5.73;2.83;;;25.20;71.60;;;;;;10489912;28;20217;-81
2023/07/14 20:51:41;;;;;;;4.87;2.93;;;25.20;71.60;;;;;;10492271;28;20200;-78
2023/07/14 20:56:43;;;;;;;3.83;3.20;;;25.20;71.30;;;;;;10491687;28;20213;-81
2023/07/14 21:01:46;;;;;;;3.70;3.10;;;25.20;72.70;;;;;;10495356;28;20217;-80
2023/07/14 21:06:50;;;;;;;3.23;3.00;;;25.10;71.70;;;;;;10487666;28;20239;-79
2023/07/14 21:11:52;;;;;;;4.93;3.10;;;25.10;73.40;;;;;;10492553;28;20193;-80
2023/07/14 21:16:55;;;;;;;3.73;3.10;;;25.10;73.90;;;;;;10489246;28;20246;-80
2023/07/14 21:21:57;;;;;;;3.20;3.00;;;25.00;74.40;;;;;;10490674;28;20278;-79
2023/07/14 21:26:59;;;;;;;3.60;3.30;;;25.00;75.80;;;;;;10483510;28;20225;-80
2023/07/14 21:32:04;;;;;;;3.83;3.53;;;24.90;77.60;;;;;;10491166;28;20185;-80
2023/07/14 21:37:09;;;;;;;3.87;3.57;;;24.80;77.50;;;;;;10482368;28;20239;-81
2023/07/14 21:42:13;;;;;;;5.20;4.80;;;24.80;80.20;;;;;;10492791;28;20257;-81
2023/07/14 21:47:18;;;;;;;4.07;3.77;;;24.70;76.00;;;;;;10482634;28;20769;-80
2023/07/14 21:52:23;;;;;;;3.83;3.53;;;24.70;76.80;;;;;;10492254;28;20216;-78
2023/07/14 21:57:25;;;;;;;4.53;4.00;;;24.70;80.30;;;;;;10489905;28;20236;-79
2023/07/14 22:02:28;;;;;;;3.70;3.40;;;24.60;78.50;;;;;;10486275;28;20220;-79
2023/07/14 22:07:30;;;;;;;4.30;3.90;;;24.60;78.40;;;;;;10499189;28;20248;-80
2023/07/14 22:12:32;;;;;;;4.40;3.93;;;24.60;76.60;;;;;;10496281;28;20197;-80
2023/07/14 22:17:37;;;;;;;3.47;3.27;;;24.60;76.80;;;;;;10487558;28;20589;-80
2023/07/14 22:22:39;;;;;;;3.70;3.40;;;24.50;77.60;;;;;;10486491;28;20264;-80
2023/07/14 22:27:42;;;;;;;3.87;3.57;;;24.50;77.90;;;;;;10486043;28;20209;-80
2023/07/14 22:32:46;;;;;;;3.63;3.43;;;24.40;77.10;;;;;;10489865;28;20192;-79
2023/07/14 22:37:49;;;;;;;4.07;3.80;;;24.40;79.80;;;;;;10484263;28;20635;-80
2023/07/14 22:42:51;;;;;;;3.83;2.93;;;24.40;78.60;;;;;;10478586;28;20528;-80
2023/07/14 22:47:55;;;;;;;3.77;3.50;;;24.30;78.90;;;;;;10483726;28;20213;-77
2023/07/14 22:52:57;;;;;;;3.13;2.93;;;24.30;78.80;;;;;;10479361;28;20197;-80
2023/07/14 22:58:00;;;;;;;3.53;3.30;;;24.20;79.60;;;;;;10485813;28;20275;-79
2023/07/14 23:03:15;;;;;;;3.90;3.70;;;24.10;78.30;;;;;;10477045;28;20253;-79
2023/07/14 23:08:17;;;;;;;2.80;2.63;;;24.00;78.00;;;;;;10481826;28;20582;-80
2023/07/14 23:13:24;;;;;;;3.60;3.30;;;24.00;77.60;;;;;;10483762;28;20255;-80
2023/07/14 23:18:28;;;;;;;3.77;3.47;;;23.90;77.70;;;;;;10486108;28;20605;-80
2023/07/14 23:23:31;;;;;;;3.83;3.60;;;23.80;78.20;;;;;;10486498;28;20229;-80
2023/07/14 23:28:33;;;;;;;3.90;3.70;;;23.80;78.80;;;;;;10488326;28;20280;-81
2023/07/14 23:38:42;;;;;;;3.70;3.40;;;23.70;80.20;;;;;;10371919;28;20215;-78
2023/07/14 23:43:46;;;;;;;7.43;3.67;;;23.70;79.10;;;;;;10376734;28;20223;-77
2023/07/14 23:48:48;;;;;;;3.10;2.87;;;23.60;78.50;;;;;;10357601;28;20238;-78
2023/07/14 23:53:52;;;;;;;5.10;3.20;;;23.50;78.20;;;;;;10375958;28;20187;-78
2023/07/14 23:58:54;;;;;;;4.07;3.67;;;23.40;77.80;;;;;;10357963;28;20219;-78
